Time;durP1;ratioP1;P1;durP2;ratioP2;P2;SDS_P1;SDS_P2;PMS_P1;PMS_P2;Temp;Humidity;BMP_temperature;BMP_pressure;BME280_temperature;BME280_humidity;BME280_pressure;Samples;Min_cycle;Max_cycle;Signal;HPM_P1;HPM_P2
2022/09/07 00:00:32;;;;;;;13.85;7.50;;;19.20;99.90;;;;;;5106716;28;20404;-66
2022/09/07 00:02:58;;;;;;;10.38;7.53;;;19.20;99.90;;;;;;5106600;28;20393;-64
2022/09/07 00:05:23;;;;;;;9.38;7.63;;;19.10;99.90;;;;;;5103603;28;20031;-63
2022/09/07 00:07:49;;;;;;;10.07;8.25;;;19.10;99.90;;;;;;5112246;28;21380;-65
2022/09/07 00:10:15;;;;;;;11.45;7.68;;;19.00;99.90;;;;;;5108742;28;20044;-64
2022/09/07 00:12:41;;;;;;;10.63;8.45;;;19.00;99.90;;;;;;5110849;28;20039;-66
2022/09/07 00:15:09;;;;;;;8.95;7.97;;;18.90;99.90;;;;;;5099242;28;20059;-63
2022/09/07 00:17:35;;;;;;;9.18;8.27;;;18.90;99.90;;;;;;5118053;27;20043;-64
2022/09/07 00:20:03;;;;;;;8.70;7.80;;;18.80;99.90;;;;;;5111076;27;20046;-65
2022/09/07 00:22:29;;;;;;;13.20;9.18;;;18.80;99.90;;;;;;5124542;27;20087;-65
2022/09/07 00:24:54;;;;;;;15.65;9.65;;;18.80;99.90;;;;;;5121993;27;20485;-64
2022/09/07 00:27:20;;;;;;;12.02;9.68;;;18.70;99.90;;;;;;5112568;28;20039;-64
2022/09/07 00:29:46;;;;;;;13.50;10.30;;;18.70;99.90;;;;;;5111065;27;20394;-62
2022/09/07 00:32:11;;;;;;;13.25;10.93;;;18.70;99.90;;;;;;5127602;27;20535;-64
2022/09/07 00:34:37;;;;;;;13.70;10.88;;;18.60;99.90;;;;;;5110593;28;20035;-65
2022/09/07 00:37:03;;;;;;;16.52;13.90;;;18.40;99.90;;;;;;5110183;27;20052;-65
2022/09/07 00:39:29;;;;;;;16.90;14.98;;;18.30;99.90;;;;;;5106926;28;20524;-63
2022/09/07 00:41:54;;;;;;;20.35;14.98;;;18.30;99.90;;;;;;5111943;28;20378;-63
2022/09/07 00:45:13;;;;;;;15.73;14.10;;;18.30;99.90;;;;;;5112093;27;20079;-67
2022/09/07 00:47:54;;;;;;;20.23;15.73;;;18.30;99.90;;;;;;5011638;28;20207;-65
2022/09/07 00:50:30;;;;;;;19.30;16.65;;;18.30;99.90;;;;;;5026598;28;20447;-63
2022/09/07 00:53:04;;;;;;;21.02;15.65;;;18.20;99.90;;;;;;5011964;28;20052;-63
2022/09/07 00:55:32;;;;;;;18.55;15.20;;;18.20;99.90;;;;;;5026321;28;20121;-67
2022/09/07 00:57:59;;;;;;;19.15;17.00;;;18.30;99.90;;;;;;5011715;28;20072;-64
2022/09/07 01:00:26;;;;;;;19.33;16.52;;;18.30;99.90;;;;;;4993988;28;20465;-64
2022/09/07 01:02:55;;;;;;;21.20;18.27;;;18.30;99.90;;;;;;5028769;28;20088;-65
2022/09/07 01:05:47;;;;;;;25.23;19.02;;;18.40;99.90;;;;;;5013339;28;20049;-65
2022/09/07 01:08:13;;;;;;;22.27;19.98;;;18.30;99.90;;;;;;5026085;28;20471;-65
2022/09/07 01:10:39;;;;;;;19.88;17.80;;;18.30;99.90;;;;;;5013114;28;20048;-66
2022/09/07 01:13:04;;;;;;;20.77;18.10;;;18.20;99.90;;;;;;5013359;28;20037;-63
2022/09/07 01:15:45;;;;;;;23.50;18.92;;;18.20;99.90;;;;;;5028054;28;20421;-63
2022/09/07 01:18:22;;;;;;;20.92;18.75;;;18.20;99.90;;;;;;5010475;28;20033;-65
2022/09/07 01:20:59;;;;;;;21.02;18.83;;;18.20;99.90;;;;;;5019860;28;20056;-63
2022/09/07 01:23:40;;;;;;;22.02;19.25;;;18.20;99.90;;;;;;5109089;28;20038;-63
2022/09/07 01:26:30;;;;;;;21.33;18.83;;;18.20;99.90;;;;;;5095772;28;20036;-64
2022/09/07 01:29:22;;;;;;;19.25;16.85;;;18.20;99.90;;;;;;5108947;28;20118;-64
2022/09/07 01:32:04;;;;;;;16.00;14.40;;;18.10;99.90;;;;;;5108237;27;20089;-64
2022/09/07 01:34:31;;;;;;;16.98;15.18;;;18.10;99.90;;;;;;5108220;28;20390;-64
2022/09/07 01:37:21;;;;;;;16.38;14.68;;;18.10;99.90;;;;;;5111214;28;20421;-63
2022/09/07 01:39:52;;;;;;;14.30;12.85;;;18.00;99.90;;;;;;5107600;28;20100;-65
2022/09/07 01:42:22;;;;;;;15.68;14.15;;;18.00;99.90;;;;;;5109921;27;20036;-64
2022/09/07 01:45:01;;;;;;;13.25;11.88;;;18.00;99.90;;;;;;5116985;27;20092;-65
2022/09/07 01:47:54;;;;;;;11.82;10.63;;;18.00;99.90;;;;;;5109217;27;20043;-65
2022/09/07 01:50:30;;;;;;;10.88;9.80;;;18.00;99.90;;;;;;5105917;27;20062;-63
2022/09/07 01:53:14;;;;;;;7.80;7.00;;;17.90;99.90;;;;;;5107349;28;20043;-64
2022/09/07 01:55:57;;;;;;;8.27;6.32;;;17.90;99.90;;;;;;5106604;28;20398;-66
2022/09/07 01:58:47;;;;;;;5.90;5.28;;;17.80;99.90;;;;;;5110077;28;20034;-64
2022/09/07 02:01:23;;;;;;;6.25;5.15;;;17.80;99.90;;;;;;5118927;27;20047;-64
2022/09/07 02:04:18;;;;;;;6.53;5.07;;;17.80;99.90;;;;;;5107402;28;20040;-63
2022/09/07 02:06:50;;;;;;;4.25;3.83;;;17.70;99.90;;;;;;5030237;28;20049;-64
2022/09/07 02:09:20;;;;;;;;;;;17.70;99.90;;;;;;5031617;28;20048;-63
2022/09/07 02:11:49;;;;;;;4.50;3.42;;;17.70;99.90;;;;;;5031617;28;19920;-64
2022/09/07 02:14:47;;;;;;;4.05;3.10;;;17.70;99.90;;;;;;5030305;28;20040;-65
2022/09/07 02:17:29;;;;;;;2.95;2.65;;;17.60;99.90;;;;;;4985521;28;20093;-65
2022/09/07 02:20:02;;;;;;;;;;;17.60;99.90;;;;;;4955099;28;20058;-65
2022/09/07 02:22:31;;;;;;;4.30;2.65;;;17.50;99.90;;;;;;4970821;28;19933;-64
2022/09/07 02:25:00;;;;;;;5.55;2.85;;;17.50;99.90;;;;;;4971739;28;20085;-64
2022/09/07 02:27:44;;;;;;;4.15;2.40;;;17.50;99.90;;;;;;4986879;28;20548;-63
2022/09/07 02:30:10;;;;;;;4.47;2.60;;;17.40;99.90;;;;;;4969177;28;20070;-65
2022/09/07 02:32:36;;;;;;;3.55;2.50;;;17.40;99.90;;;;;;4970315;28;20046;-66
2022/09/07 02:35:02;;;;;;;5.10;2.47;;;17.40;99.90;;;;;;4971088;28;20109;-63
2022/09/07 02:37:29;;;;;;;3.33;2.95;;;17.40;99.90;;;;;;4987796;28;20050;-64
2022/09/07 02:39:54;;;;;;;3.00;2.30;;;17.40;99.90;;;;;;4983405;28;20922;-64
2022/09/07 02:42:20;;;;;;;3.80;2.65;;;17.40;99.90;;;;;;4971882;28;20057;-65
2022/09/07 02:44:47;;;;;;;4.18;2.80;;;17.40;99.90;;;;;;5049452;28;20044;-65
2022/09/07 02:47:19;;;;;;;3.95;2.92;;;17.40;99.90;;;;;;5049537;28;20056;-63
2022/09/07 02:49:56;;;;;;;;;;;17.40;99.90;;;;;;5050544;28;20191;-65
2022/09/07 02:52:57;;;;;;;4.15;2.58;;;17.40;99.90;;;;;;5050388;28;20443;-64
2022/09/07 02:55:42;;;;;;;4.80;2.85;;;17.40;99.90;;;;;;5082569;28;20055;-64
2022/09/07 02:58:19;;;;;;;3.33;2.90;;;17.30;99.90;;;;;;5107464;28;20043;-63
2022/09/07 03:00:57;;;;;;;4.05;2.80;;;17.30;99.90;;;;;;5108101;28;20040;-65
2022/09/07 03:03:32;;;;;;;3.50;3.13;;;17.30;99.90;;;;;;5119896;27;20176;-64
2022/09/07 03:06:25;;;;;;;4.18;3.08;;;17.30;99.90;;;;;;5106972;28;20031;-66
2022/09/07 03:08:55;;;;;;;4.35;3.40;;;17.30;99.90;;;;;;5015278;28;20175;-64
2022/09/07 03:11:21;;;;;;;3.50;3.20;;;17.30;99.90;;;;;;5030315;28;20045;-66
2022/09/07 03:13:47;;;;;;;5.10;3.28;;;17.30;99.90;;;;;;5029886;28;20507;-63
2022/09/07 03:16:14;;;;;;;3.75;3.25;;;17.30;99.90;;;;;;5027851;28;20135;-65
2022/09/07 03:18:43;;;;;;;3.78;3.30;;;17.30;99.90;;;;;;5029631;28;20690;-64
2022/09/07 03:21:09;;;;;;;4.38;3.28;;;17.30;99.90;;;;;;5030475;28;20061;-63
2022/09/07 03:23:36;;;;;;;3.75;3.38;;;17.30;99.90;;;;;;5030196;28;20069;-64
2022/09/07 03:26:02;;;;;;;4.10;3.53;;;17.30;99.90;;;;;;5028748;28;20049;-64
2022/09/07 03:28:28;;;;;;;3.92;3.28;;;17.30;99.90;;;;;;5027550;28;20045;-64
2022/09/07 03:30:55;;;;;;;5.28;3.63;;;17.30;99.90;;;;;;5029238;28;20064;-65
2022/09/07 03:33:21;;;;;;;5.43;3.20;;;17.20;99.90;;;;;;5012944;28;20049;-65
2022/09/07 03:35:58;;;;;;;4.28;3.75;;;17.30;99.90;;;;;;5032856;28;20047;-64
2022/09/07 03:38:23;;;;;;;5.53;3.35;;;17.30;99.90;;;;;;5030538;28;20407;-64
2022/09/07 03:41:04;;;;;;;3.83;3.45;;;17.20;99.90;;;;;;5031706;28;20160;-63
2022/09/07 03:43:31;;;;;;;5.28;3.63;;;17.20;99.90;;;;;;5027000;28;20071;-66
2022/09/07 03:46:01;;;;;;;3.97;3.45;;;17.20;99.90;;;;;;5057433;28;20039;-62
2022/09/07 03:48:34;;;;;;;4.82;3.75;;;17.20;99.90;;;;;;5110915;27;20055;-65
2022/09/07 03:51:05;;;;;;;4.60;4.15;;;17.20;99.90;;;;;;5106924;28;20369;-64
2022/09/07 03:53:32;;;;;;;5.93;4.10;;;17.20;99.90;;;;;;5111997;28;20478;-63
2022/09/07 03:56:00;;;;;;;5.68;5.07;;;17.20;99.90;;;;;;5119424;27;20335;-64
2022/09/07 03:58:28;;;;;;;6.25;4.93;;;17.20;99.90;;;;;;5112005;27;20044;-63
2022/09/07 04:00:54;;;;;;;5.95;5.10;;;17.20;99.90;;;;;;5112978;28;20495;-64
2022/09/07 04:03:20;;;;;;;6.50;5.22;;;17.20;99.90;;;;;;5107867;28;20068;-65
2022/09/07 04:05:45;;;;;;;6.15;5.60;;;17.20;99.90;;;;;;5104953;28;20425;-63
2022/09/07 04:08:11;;;;;;;7.18;6.57;;;17.20;99.90;;;;;;5111802;28;20218;-65
2022/09/07 04:10:38;;;;;;;8.20;7.40;;;17.20;99.90;;;;;;5114027;27;20084;-64
2022/09/07 04:13:04;;;;;;;7.95;7.15;;;17.20;99.90;;;;;;5108704;28;20057;-64
2022/09/07 04:15:30;;;;;;;8.70;7.80;;;17.10;99.90;;;;;;5125725;27;20039;-64
2022/09/07 04:17:55;;;;;;;8.90;8.00;;;17.10;99.90;;;;;;5109344;28;20085;-66
2022/09/07 04:20:21;;;;;;;10.13;9.05;;;17.10;99.90;;;;;;5097286;28;20475;-61
2022/09/07 04:22:48;;;;;;;10.50;9.50;;;17.10;99.90;;;;;;5111711;27;20134;-64
2022/09/07 04:25:15;;;;;;;12.35;10.45;;;17.10;99.90;;;;;;5110158;28;20035;-64
2022/09/07 04:27:40;;;;;;;13.18;11.95;;;17.20;99.90;;;;;;5105628;28;20046;-65
2022/09/07 04:30:07;;;;;;;11.43;10.23;;;17.10;99.90;;;;;;5110419;28;20039;-63
2022/09/07 04:32:32;;;;;;;13.98;12.68;;;17.20;99.90;;;;;;5121427;27;20086;-65
2022/09/07 04:34:58;;;;;;;12.38;10.93;;;17.20;99.90;;;;;;5111038;28;20076;-64
2022/09/07 04:37:24;;;;;;;12.30;11.05;;;17.20;99.90;;;;;;5126676;27;20035;-65
2022/09/07 04:39:50;;;;;;;13.45;12.15;;;17.20;99.90;;;;;;5108893;28;20040;-65
2022/09/07 04:42:16;;;;;;;15.20;13.70;;;17.20;99.90;;;;;;5110792;28;20043;-62
2022/09/07 04:44:42;;;;;;;15.20;13.20;;;17.20;99.90;;;;;;5110240;28;20504;-65
2022/09/07 04:47:08;;;;;;;12.68;11.38;;;17.10;99.90;;;;;;5107878;28;20126;-64
2022/09/07 04:49:34;;;;;;;13.77;12.45;;;17.10;99.90;;;;;;5111544;27;20130;-65
2022/09/07 04:52:00;;;;;;;14.68;13.32;;;17.10;99.90;;;;;;5113524;27;20062;-64
2022/09/07 04:54:25;;;;;;;13.65;12.27;;;17.10;99.90;;;;;;5111223;28;20039;-64
2022/09/07 04:56:51;;;;;;;14.88;13.38;;;17.10;99.90;;;;;;5108059;27;20398;-64
2022/09/07 04:59:18;;;;;;;12.82;11.60;;;17.10;99.90;;;;;;5108529;28;20622;-63
2022/09/07 05:01:43;;;;;;;12.98;11.68;;;17.10;99.90;;;;;;5116884;27;20548;-65
2022/09/07 05:04:09;;;;;;;12.93;11.73;;;17.10;99.90;;;;;;5107576;28;20077;-62
2022/09/07 05:06:35;;;;;;;13.10;10.90;;;17.10;99.90;;;;;;5120933;27;20038;-64
2022/09/07 05:09:01;;;;;;;12.68;11.48;;;17.10;99.90;;;;;;5109416;28;20120;-63
2022/09/07 05:11:27;;;;;;;15.30;12.55;;;17.10;99.90;;;;;;5110600;28;21927;-62
2022/09/07 05:13:55;;;;;;;14.40;12.73;;;17.20;99.90;;;;;;5106713;28;20043;-65
2022/09/07 05:16:22;;;;;;;12.55;11.35;;;17.20;99.90;;;;;;5115089;27;20543;-65
2022/09/07 05:18:53;;;;;;;13.25;12.05;;;17.20;99.90;;;;;;5120673;27;20067;-65
2022/09/07 05:21:22;;;;;;;14.05;12.35;;;17.20;99.90;;;;;;5130821;27;20561;-65
2022/09/07 05:23:50;;;;;;;14.55;13.13;;;17.20;99.90;;;;;;5122406;27;20038;-64
2022/09/07 05:26:17;;;;;;;14.18;12.88;;;17.20;99.90;;;;;;5117155;27;20044;-64
2022/09/07 05:28:43;;;;;;;14.23;12.93;;;17.30;99.90;;;;;;5109585;27;20126;-64
2022/09/07 05:31:11;;;;;;;13.80;12.18;;;17.30;99.90;;;;;;5109490;28;20134;-63
2022/09/07 05:33:37;;;;;;;13.60;12.30;;;17.30;99.90;;;;;;5110825;27;20054;-67
2022/09/07 05:36:04;;;;;;;13.52;12.13;;;17.30;99.90;;;;;;5105570;28;20405;-64
2022/09/07 05:38:33;;;;;;;12.45;11.35;;;17.30;99.90;;;;;;5107083;27;20381;-66
2022/09/07 05:40:59;;;;;;;13.88;12.52;;;17.30;99.90;;;;;;5110234;28;20043;-65
2022/09/07 05:43:25;;;;;;;13.13;11.73;;;17.40;99.90;;;;;;5119661;27;20050;-65
2022/09/07 05:45:54;;;;;;;15.13;12.38;;;17.40;99.90;;;;;;5107695;27;20043;-66
2022/09/07 05:48:20;;;;;;;13.93;12.63;;;17.40;99.90;;;;;;5118941;27;20047;-65
2022/09/07 05:50:50;;;;;;;13.45;11.93;;;17.40;99.90;;;;;;5106164;27;20153;-65
2022/09/07 05:53:18;;;;;;;14.60;13.10;;;17.40;99.90;;;;;;5109295;27;20039;-66
2022/09/07 05:55:43;;;;;;;15.30;13.25;;;17.40;99.90;;;;;;5111906;27;20043;-63
2022/09/07 05:58:09;;;;;;;22.38;20.27;;;17.40;99.90;;;;;;5109704;27;20425;-65
2022/09/07 06:00:34;;;;;;;21.58;19.40;;;17.40;99.90;;;;;;5122709;27;20051;-64
2022/09/07 06:03:00;;;;;;;23.67;21.38;;;17.40;99.90;;;;;;5129651;27;20065;-64
2022/09/07 06:05:26;;;;;;;29.02;25.85;;;17.40;99.90;;;;;;5109357;27;20042;-64
2022/09/07 06:07:52;;;;;;;27.33;24.52;;;17.40;99.90;;;;;;5110463;28;20412;-65
2022/09/07 06:10:17;;;;;;;26.92;24.17;;;17.40;99.90;;;;;;5120012;27;20046;-65
2022/09/07 06:12:46;;;;;;;26.85;24.15;;;17.40;99.90;;;;;;5111749;27;20149;-64
2022/09/07 06:15:12;;;;;;;26.63;23.73;;;17.40;99.90;;;;;;5110439;27;20055;-65
2022/09/07 06:17:38;;;;;;;27.27;24.38;;;17.50;99.90;;;;;;5110982;28;20039;-65
2022/09/07 06:20:05;;;;;;;28.45;25.50;;;17.50;99.90;;;;;;5117065;27;20142;-64
2022/09/07 06:22:35;;;;;;;32.05;28.75;;;17.50;99.90;;;;;;5109773;28;20562;-65
2022/09/07 06:25:01;;;;;;;33.10;29.67;;;17.50;99.90;;;;;;5120221;27;20057;-66
2022/09/07 06:27:27;;;;;;;31.40;28.13;;;17.60;99.90;;;;;;5105286;28;20118;-65
2022/09/07 06:29:53;;;;;;;33.40;29.67;;;17.60;99.90;;;;;;5110006;27;20036;-63
2022/09/07 06:32:18;;;;;;;32.10;28.88;;;17.60;99.90;;;;;;5109794;27;20497;-65
2022/09/07 06:34:44;;;;;;;33.13;29.75;;;17.70;99.90;;;;;;5092616;28;20087;-65
2022/09/07 06:37:10;;;;;;;32.72;29.25;;;17.70;99.90;;;;;;5122383;27;20039;-64
2022/09/07 06:39:36;;;;;;;31.73;28.42;;;17.80;99.90;;;;;;5103231;28;20079;-65
2022/09/07 06:42:04;;;;;;;31.83;28.42;;;17.80;99.90;;;;;;5107279;27;20024;-65
2022/09/07 06:44:31;;;;;;;30.67;27.58;;;17.80;99.90;;;;;;5123686;27;20031;-65
2022/09/07 06:46:57;;;;;;;30.23;27.13;;;17.80;99.90;;;;;;5124154;27;20375;-65
2022/09/07 06:49:24;;;;;;;28.40;25.33;;;17.70;99.90;;;;;;5117389;27;20062;-65
2022/09/07 06:51:49;;;;;;;27.33;24.42;;;17.70;99.90;;;;;;5109272;28;20040;-64
2022/09/07 06:54:16;;;;;;;25.77;23.00;;;17.70;99.90;;;;;;5129480;27;20103;-63
2022/09/07 06:56:41;;;;;;;27.75;24.83;;;17.70;99.90;;;;;;5130953;27;20140;-66
2022/09/07 06:59:07;;;;;;;27.05;24.23;;;17.70;99.90;;;;;;5108936;28;20044;-63
2022/09/07 07:01:33;;;;;;;25.25;22.58;;;17.60;99.90;;;;;;5109521;28;20051;-64
2022/09/07 07:04:00;;;;;;;22.77;20.38;;;17.60;99.90;;;;;;5111912;27;20043;-65
2022/09/07 07:06:36;;;;;;;22.20;19.80;;;17.60;99.90;;;;;;5105480;28;20047;-64
2022/09/07 07:09:03;;;;;;;21.60;18.42;;;17.50;99.90;;;;;;5109123;28;20431;-65
2022/09/07 07:11:31;;;;;;;21.10;18.90;;;17.40;99.90;;;;;;5126122;28;20114;-64
2022/09/07 07:13:58;;;;;;;23.60;20.02;;;17.40;99.90;;;;;;5129800;27;20031;-63
2022/09/07 07:16:24;;;;;;;21.27;18.98;;;17.40;99.90;;;;;;5131106;27;20434;-65
2022/09/07 07:18:54;;;;;;;22.52;19.83;;;17.40;99.90;;;;;;5124236;27;20036;-64
2022/09/07 07:21:19;;;;;;;20.40;18.20;;;17.40;99.90;;;;;;5132123;27;20059;-65
2022/09/07 07:23:50;;;;;;;21.88;18.27;;;17.40;99.90;;;;;;5133739;27;20389;-66
2022/09/07 07:26:21;;;;;;;20.88;18.65;;;17.40;99.90;;;;;;5134268;27;20031;-64
2022/09/07 07:28:48;;;;;;;21.23;18.98;;;17.40;99.90;;;;;;5120088;27;20108;-64
2022/09/07 07:31:16;;;;;;;20.05;17.92;;;17.40;99.90;;;;;;5114667;27;20050;-64
2022/09/07 07:33:49;;;;;;;20.35;18.25;;;17.50;99.90;;;;;;5129902;27;20047;-66
2022/09/07 07:36:17;;;;;;;19.75;17.70;;;17.60;99.90;;;;;;5078034;28;20398;-65
2022/09/07 07:38:46;;;;;;;18.60;16.70;;;17.60;99.90;;;;;;5131977;27;20491;-64
2022/09/07 07:41:13;;;;;;;19.15;16.67;;;17.70;99.90;;;;;;5100873;28;20051;-65
2022/09/07 07:43:39;;;;;;;20.70;17.05;;;17.80;99.90;;;;;;5131172;27;20038;-65
2022/09/07 07:46:05;;;;;;;18.30;15.45;;;17.80;99.90;;;;;;5129021;27;20043;-63
2022/09/07 07:48:32;;;;;;;19.42;17.50;;;17.90;99.90;;;;;;5132911;27;20765;-64
2022/09/07 07:51:06;;;;;;;17.77;15.95;;;18.00;99.90;;;;;;5125469;27;20401;-65
2022/09/07 07:53:34;;;;;;;18.40;16.17;;;18.10;99.90;;;;;;5132615;27;20394;-62
2022/09/07 07:56:01;;;;;;;17.67;15.10;;;18.20;99.90;;;;;;5132992;27;20098;-65
2022/09/07 07:58:27;;;;;;;16.67;14.98;;;18.20;99.90;;;;;;5123639;27;20035;-65
2022/09/07 08:00:54;;;;;;;19.30;15.18;;;18.20;99.90;;;;;;5113995;28;20046;-63
2022/09/07 08:03:23;;;;;;;18.27;14.95;;;18.20;99.90;;;;;;5126716;27;20543;-64
2022/09/07 08:05:49;;;;;;;16.50;14.80;;;18.30;99.90;;;;;;5131677;27;20419;-65
2022/09/07 08:08:15;;;;;;;15.73;14.07;;;18.40;99.90;;;;;;5133310;27;20047;-65
2022/09/07 08:10:41;;;;;;;14.85;13.27;;;18.50;99.90;;;;;;5115711;27;20043;-66
2022/09/07 08:13:06;;;;;;;13.75;12.35;;;18.40;99.90;;;;;;5117307;27;20114;-64
2022/09/07 08:15:40;;;;;;;15.20;13.63;;;18.50;99.90;;;;;;5119684;27;20462;-65
2022/09/07 08:18:05;;;;;;;13.05;11.50;;;18.60;99.90;;;;;;5131781;27;20043;-65
2022/09/07 08:20:31;;;;;;;13.07;11.57;;;18.70;99.90;;;;;;5115770;27;20074;-63
2022/09/07 08:22:56;;;;;;;13.70;12.30;;;18.70;99.90;;;;;;5132776;27;20039;-65
2022/09/07 08:25:22;;;;;;;13.57;12.25;;;18.80;99.90;;;;;;5127057;27;20036;-64
2022/09/07 08:27:48;;;;;;;14.93;12.52;;;18.90;99.90;;;;;;5119163;27;20031;-65
2022/09/07 08:30:14;;;;;;;14.88;13.15;;;18.90;99.90;;;;;;5112274;28;20043;-64
2022/09/07 08:32:39;;;;;;;14.82;12.73;;;18.90;99.90;;;;;;5112750;28;20470;-65
2022/09/07 08:35:06;;;;;;;13.05;11.75;;;19.00;99.90;;;;;;5130985;27;20042;-65
2022/09/07 08:37:32;;;;;;;14.18;12.77;;;19.10;99.90;;;;;;5113057;27;20058;-64
2022/09/07 08:39:58;;;;;;;13.90;11.77;;;19.20;99.90;;;;;;5129894;27;20039;-66
2022/09/07 08:42:50;;;;;;;12.93;10.65;;;19.50;99.90;;;;;;5132621;27;20038;-64
2022/09/07 08:45:33;;;;;;;11.95;10.23;;;19.40;99.90;;;;;;5132253;27;20043;-65
2022/09/07 08:47:58;;;;;;;;;;;19.40;99.90;;;;;;5115463;27;20624;-65
2022/09/07 08:50:51;;;;;;;9.88;8.88;;;19.40;99.90;;;;;;5122645;27;19927;-65
2022/09/07 08:53:18;;;;;;;;;;;19.30;99.90;;;;;;5131899;27;20054;-65
2022/09/07 08:56:05;;;;;;;10.52;9.30;;;19.40;99.90;;;;;;5132390;27;19930;-65
2022/09/07 08:58:38;;;;;;;9.30;8.50;;;19.40;99.90;;;;;;5133367;27;20038;-65
2022/09/07 09:01:15;;;;;;;11.45;8.63;;;19.40;99.90;;;;;;5121052;27;20061;-66
2022/09/07 09:03:41;;;;;;;9.52;8.52;;;19.50;99.90;;;;;;5130180;27;20478;-64
2022/09/07 09:06:07;;;;;;;9.52;7.93;;;19.50;99.90;;;;;;5114700;27;20110;-66
2022/09/07 09:08:59;;;;;;;9.32;8.43;;;19.50;99.90;;;;;;5115256;27;20157;-65
2022/09/07 09:11:52;;;;;;;12.13;8.67;;;19.50;99.90;;;;;;5025189;28;20128;-64
2022/09/07 09:14:35;;;;;;;9.63;8.05;;;19.40;99.90;;;;;;5028659;28;20056;-64
2022/09/07 09:17:11;;;;;;;9.32;7.97;;;19.40;99.90;;;;;;5026341;28;20049;-65
2022/09/07 09:19:48;;;;;;;9.05;8.15;;;19.40;99.90;;;;;;5025548;28;20037;-65
2022/09/07 09:22:19;;;;;;;8.85;7.95;;;19.40;99.90;;;;;;5008026;28;20049;-64
2022/09/07 09:24:59;;;;;;;8.70;7.25;;;19.50;99.90;;;;;;5013077;28;20037;-64
2022/09/07 09:27:24;;;;;;;8.50;7.60;;;19.50;99.90;;;;;;4995338;28;20184;-65
2022/09/07 09:29:50;;;;;;;7.85;6.75;;;19.60;99.90;;;;;;5029655;28;20156;-65
2022/09/07 09:32:38;;;;;;;7.47;6.50;;;19.90;99.90;;;;;;5029056;28;20426;-64
2022/09/07 09:35:04;;;;;;;6.72;5.80;;;20.10;99.90;;;;;;5020996;28;20508;-65
2022/09/07 09:37:38;;;;;;;7.22;5.93;;;20.20;99.90;;;;;;5011774;28;20038;-65
2022/09/07 09:40:16;;;;;;;9.18;6.18;;;20.20;99.90;;;;;;5028326;28;20496;-65
2022/09/07 09:42:43;;;;;;;7.55;5.88;;;20.30;99.90;;;;;;5027757;28;20045;-65
2022/09/07 09:45:19;;;;;;;7.85;5.80;;;20.40;99.90;;;;;;5012647;28;20049;-65
2022/09/07 09:47:50;;;;;;;7.43;5.18;;;20.50;99.90;;;;;;5014153;28;20100;-67
2022/09/07 09:50:49;;;;;;;6.97;5.80;;;20.30;99.90;;;;;;5114534;27;20043;-65
2022/09/07 09:53:23;;;;;;;7.00;5.40;;;20.40;99.90;;;;;;5029120;28;20060;-65
2022/09/07 09:55:51;;;;;;;6.18;5.57;;;20.30;99.90;;;;;;5011854;28;20057;-65
2022/09/07 09:58:30;;;;;;;7.65;5.72;;;20.50;99.90;;;;;;5012622;28;20128;-66
2022/09/07 10:01:22;;;;;;;5.20;4.70;;;20.50;99.90;;;;;;4996121;28;20121;-65
2022/09/07 10:03:48;;;;;;;7.45;4.70;;;20.40;99.90;;;;;;5004026;28;20530;-65
2022/09/07 10:06:17;;;;;;;5.35;4.47;;;20.30;99.90;;;;;;5011669;28;20037;-66
2022/09/07 10:09:00;;;;;;;6.40;4.80;;;20.40;99.90;;;;;;5012448;28;20076;-67
2022/09/07 10:11:47;;;;;;;5.53;4.95;;;20.30;99.90;;;;;;5012097;28;20041;-67
2022/09/07 10:14:26;;;;;;;6.75;4.97;;;20.30;99.90;;;;;;4996260;28;20887;-66
2022/09/07 10:16:52;;;;;;;6.80;4.95;;;20.40;99.90;;;;;;5012228;28;20049;-67
2022/09/07 10:19:37;;;;;;;6.18;4.80;;;20.50;99.90;;;;;;5012480;28;20045;-64
2022/09/07 10:22:25;;;;;;;4.90;4.25;;;20.60;99.90;;;;;;5011606;28;20045;-66
2022/09/07 10:24:51;;;;;;;5.30;4.32;;;20.60;99.90;;;;;;4999698;28;20476;-64
2022/09/07 10:27:29;;;;;;;4.68;4.05;;;20.60;99.90;;;;;;5012315;28;20099;-64
2022/09/07 10:29:55;;;;;;;4.68;4.10;;;20.70;99.90;;;;;;5125035;27;20155;-66
2022/09/07 10:32:38;;;;;;;4.78;4.28;;;20.70;99.90;;;;;;5114042;27;20039;-65
2022/09/07 10:35:32;;;;;;;5.03;4.53;;;20.80;99.90;;;;;;5113245;27;20107;-65
2022/09/07 10:38:16;;;;;;;4.38;3.95;;;20.90;99.90;;;;;;5117527;27;20043;-65
2022/09/07 10:41:06;;;;;;;3.80;3.50;;;21.10;99.90;;;;;;5109880;28;20081;-65
2022/09/07 10:43:49;;;;;;;4.43;3.83;;;21.50;99.90;;;;;;5129749;27;20035;-66
2022/09/07 10:47:05;;;;;;;6.07;4.13;;;21.80;99.90;;;;;;5104373;28;20051;-66
2022/09/07 10:49:50;;;;;;;5.47;3.95;;;22.10;99.90;;;;;;5011764;28;20076;-65
2022/09/07 10:52:32;;;;;;;5.70;3.80;;;22.20;99.90;;;;;;5013971;28;20427;-65
2022/09/07 10:55:31;;;;;;;4.80;4.10;;;22.30;99.90;;;;;;5019289;28;20037;-66
2022/09/07 10:58:29;;;;;;;5.72;4.28;;;22.70;99.90;;;;;;5000686;28;20045;-67
2022/09/07 11:01:30;;;;;;;4.78;3.80;;;22.70;99.90;;;;;;5029242;28;20041;-68
2022/09/07 11:04:30;;;;;;;4.00;3.60;;;22.70;99.90;;;;;;5037782;28;20040;-66
2022/09/07 11:07:19;;;;;;;5.43;3.70;;;22.50;99.90;;;;;;5021387;28;20087;-64
2022/09/07 11:10:00;;;;;;;4.20;3.17;;;22.50;99.90;;;;;;5007164;28;20041;-65
2022/09/07 11:12:33;;;;;;;6.43;4.25;;;22.90;99.90;;;;;;5032402;28;20495;-65
2022/09/07 11:15:07;;;;;;;4.75;3.85;;;23.20;99.90;;;;;;5021553;28;20042;-66
2022/09/07 11:17:42;;;;;;;3.40;3.10;;;23.40;99.90;;;;;;5010775;28;20183;-65
2022/09/07 11:20:10;;;;;;;4.45;3.60;;;23.70;99.90;;;;;;4999384;28;20049;-64
2022/09/07 11:22:49;;;;;;;4.35;3.92;;;23.80;99.90;;;;;;5029409;28;20174;-64
2022/09/07 11:25:20;;;;;;;4.70;3.90;;;23.60;99.90;;;;;;5091016;28;20635;-66
2022/09/07 11:27:54;;;;;;;4.43;3.50;;;23.50;99.90;;;;;;5119313;28;20047;-67
2022/09/07 11:30:47;;;;;;;3.88;3.28;;;23.70;99.90;;;;;;5108288;28;20114;-65
2022/09/07 11:33:41;;;;;;;3.22;2.92;;;23.80;99.90;;;;;;5123356;28;20138;-64
2022/09/07 11:36:15;;;;;;;5.30;3.40;;;24.00;99.90;;;;;;5126997;28;20214;-65
2022/09/07 11:38:48;;;;;;;4.82;2.95;;;24.20;99.90;;;;;;5106781;28;20168;-65
2022/09/07 11:41:35;;;;;;;3.80;2.85;;;24.20;99.90;;;;;;5105622;28;20051;-66
2022/09/07 11:44:12;;;;;;;2.85;2.65;;;23.70;99.90;;;;;;5073235;28;20047;-65
2022/09/07 11:46:51;;;;;;;4.15;2.50;;;23.30;99.90;;;;;;5104187;28;20051;-66
2022/09/07 11:49:23;;;;;;;3.88;2.33;;;23.00;99.90;;;;;;5090527;28;20050;-63
2022/09/07 11:51:57;;;;;;;2.85;2.35;;;23.20;99.90;;;;;;5112747;28;20036;-64
2022/09/07 11:54:47;;;;;;;3.08;2.30;;;23.40;99.90;;;;;;5107119;28;20062;-66
2022/09/07 11:57:14;;;;;;;2.70;2.28;;;23.60;99.90;;;;;;5110005;28;20093;-65
2022/09/07 11:59:49;;;;;;;3.00;2.50;;;23.60;99.90;;;;;;5108751;28;20082;-64
2022/09/07 12:02:37;;;;;;;3.47;2.90;;;23.80;99.90;;;;;;5103120;28;20498;-66
2022/09/07 12:05:40;;;;;;;3.22;2.92;;;23.90;99.90;;;;;;5125932;27;20035;-65
2022/09/07 12:08:23;;;;;;;2.90;2.60;;;24.00;99.90;;;;;;5032699;28;20217;-64
2022/09/07 12:11:12;;;;;;;4.05;3.05;;;24.00;99.90;;;;;;5049971;28;20118;-65
2022/09/07 12:14:02;;;;;;;3.30;3.00;;;24.10;99.90;;;;;;5049799;28;20456;-64
2022/09/07 12:16:53;;;;;;;3.65;3.05;;;23.90;99.90;;;;;;5032881;28;20048;-64
2022/09/07 12:19:23;;;;;;;3.00;2.42;;;24.00;99.90;;;;;;5026540;28;20053;-65
2022/09/07 12:21:51;;;;;;;5.00;2.90;;;23.90;99.90;;;;;;5028472;28;20411;-65
2022/09/07 12:24:40;;;;;;;3.70;3.00;;;24.00;99.90;;;;;;5033236;28;20052;-66
2022/09/07 12:27:08;;;;;;;3.08;2.65;;;24.00;99.90;;;;;;5033865;28;20094;-65
2022/09/07 12:29:34;;;;;;;4.38;2.70;;;23.90;99.90;;;;;;5029551;28;20037;-66
2022/09/07 12:32:02;;;;;;;3.97;2.97;;;23.70;99.90;;;;;;5026976;28;20055;-66
2022/09/07 12:34:30;;;;;;;3.72;2.90;;;23.70;99.90;;;;;;5048198;28;20040;-64
2022/09/07 12:37:01;;;;;;;3.88;3.20;;;23.70;99.90;;;;;;5033626;28;20388;-63
2022/09/07 12:39:29;;;;;;;3.72;3.33;;;23.90;99.90;;;;;;5031506;28;20064;-65
2022/09/07 12:42:06;;;;;;;4.35;3.10;;;23.80;99.90;;;;;;5026662;28;20040;-66
2022/09/07 12:44:33;;;;;;;8.23;3.50;;;23.70;99.90;;;;;;5064206;28;20525;-66
2022/09/07 12:47:20;;;;;;;4.22;3.30;;;23.60;99.90;;;;;;5111172;28;20478;-65
2022/09/07 12:50:12;;;;;;;4.32;3.35;;;23.50;99.90;;;;;;5087439;27;20035;-64
2022/09/07 12:52:52;;;;;;;3.88;3.50;;;23.50;99.90;;;;;;5085547;28;20044;-65
2022/09/07 12:55:36;;;;;;;3.25;3.05;;;23.50;99.90;;;;;;5079450;28;20048;-66
2022/09/07 12:58:35;;;;;;;2.90;2.70;;;23.40;99.90;;;;;;5098976;28;20440;-64
2022/09/07 13:01:43;;;;;;;3.15;2.50;;;23.50;99.90;;;;;;5100764;28;20047;-67
2022/09/07 13:04:57;;;;;;;3.35;2.30;;;23.60;99.90;;;;;;5115129;27;20052;-64
2022/09/07 13:07:31;;;;;;;3.47;3.13;;;23.70;99.90;;;;;;5106794;28;20072;-65